createdAt,value
2019-04-23T00:01:49.251Z,52.95
2019-04-23T00:04:18.105Z,52.93
2019-04-23T00:07:23.912Z,53.04
2019-04-23T00:09:34.096Z,52.96
2019-04-23T00:12:13.110Z,52.97
2019-04-23T00:14:52.445Z,53.02
2019-04-23T00:17:22.629Z,53.01
2019-04-23T00:19:58.266Z,53.02
2019-04-23T00:22:36.621Z,52.91
2019-04-23T00:28:15.848Z,52.74
2019-04-23T00:31:02.733Z,52.64
2019-04-23T00:33:20.244Z,52.56
2019-04-23T00:35:49.877Z,52.32
2019-04-23T00:41:05.857Z,52.23
2019-04-23T00:43:32.885Z,51.98
2019-04-23T00:46:10.512Z,52.00
2019-04-23T00:48:54.256Z,51.83
2019-04-23T00:51:27.431Z,51.86
2019-04-23T00:53:58.696Z,51.75
2019-04-23T00:56:38.686Z,51.83
2019-04-23T00:59:08.266Z,51.90
2019-04-23T01:01:54.449Z,51.89
2019-04-23T01:04:12.268Z,52.02
2019-04-23T01:06:54.903Z,52.16
2019-04-23T01:09:22.219Z,52.11
2019-04-23T01:12:00.894Z,52.14
2019-04-23T01:14:36.143Z,52.12
2019-04-23T01:17:22.539Z,52.14
2019-04-23T01:19:49.872Z,51.98
2019-04-23T01:22:08.826Z,51.96
2019-04-23T01:24:50.847Z,52.01
2019-04-23T01:28:08.080Z,51.91
2019-04-23T01:30:40.868Z,51.94
2019-04-23T01:33:27.141Z,51.81
2019-04-23T01:36:03.267Z,51.78
2019-04-23T01:38:35.653Z,51.61
2019-04-23T01:41:01.756Z,51.64
2019-04-23T01:43:41.003Z,51.51
2019-04-23T01:46:16.297Z,51.42
2019-04-23T01:48:51.993Z,51.41
2019-04-23T01:51:25.910Z,51.34
2019-04-23T01:53:56.650Z,51.31
2019-04-23T01:56:36.883Z,51.10
2019-04-23T01:59:16.113Z,51.21
2019-04-23T02:01:51.865Z,51.15
2019-04-23T02:04:22.924Z,51.17
2019-04-23T02:07:00.326Z,51.17
2019-04-23T02:09:36.090Z,51.07
2019-04-23T02:12:07.518Z,51.12
2019-04-23T02:14:41.562Z,51.13
2019-04-23T02:17:15.820Z,51.09
2019-04-23T02:20:01.950Z,51.09
2019-04-23T02:23:09.833Z,51.12
2019-04-23T02:28:10.697Z,51.17
2019-04-23T02:33:34.476Z,51.34
2019-04-23T02:36:07.732Z,51.34
2019-04-23T02:38:46.340Z,51.38
2019-04-23T02:41:12.648Z,51.35
2019-04-23T02:43:33.623Z,51.42
2019-04-23T02:46:15.223Z,51.31
2019-04-23T02:48:56.255Z,51.48
2019-04-23T02:51:37.048Z,51.57
2019-04-23T02:54:28.833Z,51.53
2019-04-23T02:59:51.404Z,51.73
2019-04-23T03:02:05.800Z,51.74
2019-04-23T03:04:35.058Z,51.69
2019-04-23T03:07:16.128Z,51.73
2019-04-23T03:12:31.434Z,51.95
2019-04-23T03:15:00.732Z,52.04
2019-04-23T03:17:36.568Z,51.94
2019-04-23T03:20:21.273Z,52.05
2019-04-23T03:23:16.565Z,52.10
2019-04-23T03:25:49.865Z,52.16
2019-04-23T03:28:26.970Z,52.21
2019-04-23T03:32:37.630Z,52.31
2019-04-23T03:41:23.509Z,52.51
2019-04-23T03:48:56.637Z,52.60
2019-04-23T03:54:26.221Z,52.43
2019-04-23T04:09:47.855Z,52.81
2019-04-23T04:12:21.049Z,52.80
2019-04-23T04:25:14.595Z,52.16
2019-04-23T04:27:53.816Z,52.02
2019-04-23T04:33:09.403Z,51.92
2019-04-23T04:35:39.026Z,51.63
2019-04-23T04:38:16.531Z,51.63
2019-04-23T04:43:24.925Z,51.35
2019-04-23T04:48:27.253Z,51.24
2019-04-23T04:56:29.184Z,51.20
2019-04-23T04:59:06.117Z,51.39
2019-04-23T05:03:43.713Z,51.23
2019-04-23T05:06:38.702Z,51.08
2019-04-23T05:09:12.026Z,51.16
2019-04-23T05:14:26.927Z,50.86
2019-04-23T05:19:40.812Z,50.71
2019-04-23T05:22:07.011Z,50.76
2019-04-23T05:27:15.340Z,50.44
2019-04-23T05:29:46.598Z,50.32
2019-04-23T05:32:19.429Z,49.78
2019-04-23T05:35:00.580Z,49.79
2019-04-23T05:37:47.439Z,49.91
2019-04-23T05:40:02.623Z,49.75
2019-04-23T05:42:41.253Z,49.92
2019-04-23T05:45:30.202Z,49.68
2019-04-23T05:47:52.042Z,49.52
2019-04-23T05:52:59.491Z,49.19
2019-04-23T05:55:26.970Z,48.67
2019-04-23T05:58:14.849Z,48.43
2019-04-23T06:00:44.908Z,48.68
2019-04-23T06:03:41.835Z,48.39
2019-04-23T06:06:01.224Z,48.50
2019-04-23T06:08:33.600Z,48.39
2019-04-23T06:11:11.811Z,47.61
2019-04-23T06:13:44.574Z,47.72
2019-04-23T06:16:17.873Z,47.38
2019-04-23T06:21:25.273Z,47.81
2019-04-23T06:23:58.312Z,47.57
2019-04-23T06:29:15.484Z,46.95
2019-04-23T06:31:44.072Z,46.98
2019-04-23T06:34:20.225Z,46.81
2019-04-23T06:36:54.128Z,46.86
2019-04-23T06:39:23.958Z,46.91
2019-04-23T06:44:37.253Z,46.49
2019-04-23T06:49:54.535Z,45.76
2019-04-23T07:00:06.312Z,44.68
2019-04-23T07:02:42.164Z,44.68
2019-04-23T07:05:17.526Z,44.71
2019-04-23T07:07:55.218Z,43.90
2019-04-23T07:10:26.733Z,44.17
2019-04-23T07:13:04.863Z,44.27
2019-04-23T07:18:11.049Z,43.87
2019-04-23T07:20:50.490Z,43.78
2019-04-23T07:23:28.450Z,43.67
2019-04-23T07:26:03.778Z,43.57
2019-04-23T07:28:49.826Z,43.57
2019-04-23T07:31:07.773Z,43.83
2019-04-23T07:33:44.244Z,42.79
2019-04-23T07:36:17.112Z,42.54
2019-04-23T07:39:23.491Z,41.91
2019-04-23T07:42:24.902Z,41.74
2019-04-23T07:45:27.988Z,41.70
2019-04-23T07:53:22.966Z,40.20
2019-04-23T07:56:07.716Z,40.02
2019-04-23T08:03:44.594Z,38.45
2019-04-23T08:06:13.499Z,38.52
2019-04-23T08:08:54.663Z,37.91
2019-04-23T08:11:33.238Z,38.09
2019-04-23T08:19:05.768Z,37.88
2019-04-23T08:21:43.864Z,37.42
2019-04-23T08:24:45.060Z,37.61
2019-04-23T08:27:18.633Z,37.09
2019-04-23T08:29:55.793Z,36.28
2019-04-23T08:32:29.525Z,36.05
2019-04-23T08:35:06.475Z,36.48
2019-04-23T08:40:20.888Z,36.27
2019-04-23T08:42:52.877Z,35.78
2019-04-23T08:45:46.241Z,35.67
2019-04-23T08:48:27.792Z,35.50
2019-04-23T08:50:57.257Z,35.78
2019-04-23T08:53:35.740Z,35.41
2019-04-23T08:56:07.710Z,35.34
2019-04-23T08:58:34.272Z,35.33
2019-04-23T09:03:47.872Z,34.87
2019-04-23T09:06:21.687Z,34.97
2019-04-23T09:08:56.956Z,34.87
2019-04-23T09:14:07.508Z,34.90
2019-04-23T09:16:55.699Z,34.68
2019-04-23T09:22:09.351Z,34.29
2019-04-23T09:24:33.372Z,34.09
2019-04-23T09:27:16.430Z,34.40
2019-04-23T09:29:51.439Z,34.22
2019-04-23T09:32:36.701Z,34.02
2019-04-23T09:35:31.145Z,34.19
2019-04-23T09:38:34.458Z,33.68
2019-04-23T09:41:39.915Z,33.60
2019-04-23T09:46:57.365Z,33.50
2019-04-23T09:49:31.246Z,33.12
2019-04-23T09:52:05.726Z,33.11
2019-04-23T09:54:33.918Z,33.56
2019-04-23T09:57:03.886Z,33.46
2019-04-23T09:59:43.083Z,33.46
2019-04-23T10:02:05.523Z,33.48
2019-04-23T10:04:39.776Z,33.55
2019-04-23T10:07:15.239Z,33.13
2019-04-23T10:09:34.108Z,33.22
2019-04-23T10:12:09.289Z,32.93
2019-04-23T10:14:51.825Z,32.60
2019-04-23T10:17:18.087Z,32.39
2019-04-23T10:19:52.885Z,32.39
2019-04-23T10:22:27.257Z,32.72
2019-04-23T10:25:01.318Z,32.33
2019-04-23T10:27:35.111Z,32.61
2019-04-23T10:30:12.257Z,32.95
2019-04-23T10:32:45.322Z,32.94
2019-04-23T10:35:29.261Z,33.32
2019-04-23T10:37:58.591Z,33.29
2019-04-23T10:40:32.585Z,33.35
2019-04-23T10:43:03.901Z,33.60
2019-04-23T10:46:16.974Z,33.78
2019-04-23T10:49:31.612Z,33.81
2019-04-23T10:52:02.562Z,33.88
2019-04-23T10:57:03.856Z,33.85
2019-04-23T11:05:11.847Z,34.10
2019-04-23T11:12:45.773Z,33.59
2019-04-23T11:15:33.736Z,33.78
2019-04-23T11:17:52.174Z,33.97
2019-04-23T11:23:06.500Z,34.28
2019-04-23T11:25:44.848Z,34.16
2019-04-23T11:31:03.504Z,34.43
2019-04-23T11:33:37.954Z,34.50
2019-04-23T11:38:56.256Z,33.93
2019-04-23T11:41:27.626Z,34.02
2019-04-23T11:43:54.941Z,33.98
2019-04-23T11:46:49.273Z,34.21
2019-04-23T11:54:21.394Z,33.50
2019-04-23T11:57:14.171Z,33.89
2019-04-23T12:02:16.975Z,33.37
2019-04-23T12:05:23.062Z,33.58
2019-04-23T12:08:04.255Z,33.48
2019-04-23T12:11:15.236Z,32.79
2019-04-23T12:13:35.858Z,32.87
2019-04-23T12:16:13.223Z,32.68
2019-04-23T12:21:34.944Z,33.23
2019-04-23T12:26:40.767Z,33.79
2019-04-23T12:29:13.643Z,33.66
2019-04-23T12:31:47.706Z,33.74
2019-04-23T12:34:31.961Z,33.79
2019-04-23T12:36:50.975Z,34.19
2019-04-23T12:39:32.911Z,34.14
2019-04-23T12:42:25.468Z,34.44
2019-04-23T12:44:51.675Z,34.54
2019-04-23T12:47:25.406Z,34.81
2019-04-23T12:55:06.859Z,35.39
2019-04-23T13:00:16.913Z,35.30
2019-04-23T13:05:31.359Z,35.52
2019-04-23T13:15:53.673Z,36.26
2019-04-23T13:18:17.573Z,36.57
2019-04-23T13:20:51.595Z,36.68
2019-04-23T13:23:32.600Z,36.69
2019-04-23T13:26:16.108Z,36.78
2019-04-23T13:29:07.804Z,36.75
2019-04-23T13:31:16.283Z,36.70
2019-04-23T13:33:51.490Z,36.89
2019-04-23T13:36:34.895Z,36.55
2019-04-23T13:39:02.322Z,36.70
2019-04-23T13:41:40.605Z,36.49
2019-04-23T13:44:14.058Z,36.53
2019-04-23T13:46:56.116Z,36.77
2019-04-23T13:49:28.387Z,36.63
2019-04-23T13:51:54.962Z,36.61
2019-04-23T13:54:56.483Z,36.35
2019-04-23T13:57:32.601Z,36.52
2019-04-23T13:59:44.370Z,36.52
2019-04-23T14:02:31.274Z,36.75
2019-04-23T14:07:48.364Z,36.39
2019-04-23T14:10:20.188Z,36.53
2019-04-23T14:13:08.286Z,36.70
2019-04-23T14:15:36.277Z,36.53
2019-04-23T14:18:19.745Z,36.65
2019-04-23T14:20:34.808Z,36.73
2019-04-23T14:23:12.890Z,36.79
2019-04-23T14:26:05.221Z,37.00
2019-04-23T14:31:01.112Z,36.67
2019-04-23T14:33:52.616Z,36.48
2019-04-23T14:36:07.758Z,36.70
2019-04-23T14:39:04.219Z,36.04
2019-04-23T14:43:57.942Z,36.11
2019-04-23T14:49:05.473Z,36.20
2019-04-23T14:51:38.812Z,36.22
2019-04-23T14:54:17.379Z,36.64
2019-04-23T14:56:51.459Z,36.39
2019-04-23T15:01:55.096Z,36.39
2019-04-23T15:04:31.991Z,36.42
2019-04-23T15:12:22.467Z,36.69
2019-04-23T15:15:09.660Z,36.83
2019-04-23T15:17:28.468Z,36.90
2019-04-23T15:20:11.634Z,37.09
2019-04-23T15:23:02.287Z,37.17
2019-04-23T15:30:36.823Z,37.46
2019-04-23T15:33:23.677Z,37.47
2019-04-23T15:38:36.007Z,37.65
2019-04-23T15:41:01.833Z,37.88
2019-04-23T15:43:32.688Z,37.89
2019-04-23T15:46:14.754Z,38.08
2019-04-23T15:48:42.442Z,38.16
2019-04-23T15:51:26.461Z,38.17
2019-04-23T15:53:52.843Z,38.45
2019-04-23T15:59:13.533Z,38.30
2019-04-23T16:01:34.042Z,38.28
2019-04-23T16:03:45.309Z,38.36
2019-04-23T16:06:22.170Z,38.42
2019-04-23T16:09:11.111Z,38.03
2019-04-23T16:11:49.572Z,38.08
2019-04-23T16:14:34.894Z,37.97
2019-04-23T16:17:08.321Z,38.08
2019-04-23T16:20:00.160Z,38.01
2019-04-23T16:22:26.858Z,38.19
2019-04-23T16:25:06.868Z,38.32
2019-04-23T16:27:29.157Z,38.32
2019-04-23T16:30:14.219Z,38.48
2019-04-23T16:38:52.233Z,38.85
2019-04-23T16:41:24.382Z,38.82
2019-04-23T16:43:58.589Z,39.09
2019-04-23T16:46:28.565Z,39.77
2019-04-23T16:51:32.428Z,41.42
2019-04-23T16:54:19.098Z,42.98
2019-04-23T16:57:15.247Z,44.61
2019-04-23T17:02:03.825Z,46.15
2019-04-23T17:04:30.775Z,44.86
2019-04-23T17:07:02.445Z,45.59
2019-04-23T17:12:13.725Z,44.43
2019-04-23T17:14:54.540Z,44.28
2019-04-23T17:17:18.509Z,44.26
2019-04-23T17:20:08.915Z,44.21
2019-04-23T17:22:33.807Z,43.84
2019-04-23T17:27:49.030Z,42.82
2019-04-23T17:30:19.603Z,42.44
2019-04-23T17:33:13.572Z,42.65
2019-04-23T17:36:13.265Z,42.43
2019-04-23T17:41:33.118Z,42.27
2019-04-23T17:44:14.244Z,42.20
2019-04-23T17:46:42.715Z,42.13
2019-04-23T17:49:16.926Z,42.27
2019-04-23T17:51:52.010Z,42.06
2019-04-23T17:54:24.758Z,42.09
2019-04-23T17:57:07.527Z,42.20
2019-04-23T18:00:05.456Z,42.10
2019-04-23T18:05:07.176Z,42.29
2019-04-23T18:10:28.847Z,42.62
2019-04-23T18:15:38.087Z,42.81
2019-04-23T18:18:02.147Z,43.25
2019-04-23T18:20:55.979Z,43.36
2019-04-23T18:23:26.148Z,43.92
2019-04-23T18:26:05.510Z,43.84
2019-04-23T18:28:46.069Z,44.21
2019-04-23T18:31:31.428Z,44.11
2019-04-23T18:34:13.728Z,43.90
2019-04-23T18:36:38.787Z,44.26
2019-04-23T18:39:22.248Z,44.24
2019-04-23T18:42:02.512Z,44.34
2019-04-23T18:44:38.629Z,44.75
2019-04-23T18:47:07.059Z,44.60
2019-04-23T18:49:48.051Z,44.92
2019-04-23T18:52:26.130Z,44.71
2019-04-23T18:54:56.973Z,45.16
2019-04-23T18:57:18.394Z,45.31
2019-04-23T19:00:07.502Z,45.45
2019-04-23T19:03:12.785Z,45.35
2019-04-23T19:06:30.380Z,45.30
2019-04-23T19:14:40.823Z,45.28
2019-04-23T19:19:33.563Z,45.07
2019-04-23T19:24:39.075Z,44.98
2019-04-23T19:27:27.555Z,45.07
2019-04-23T19:30:28.024Z,44.89
2019-04-23T19:32:50.660Z,44.75
2019-04-23T19:35:45.388Z,44.79
2019-04-23T19:40:40.418Z,44.61
2019-04-23T19:43:11.190Z,44.34
2019-04-23T19:45:49.713Z,44.39
2019-04-23T19:48:27.111Z,44.21
2019-04-23T19:50:57.505Z,43.99
2019-04-23T19:56:15.909Z,43.91
2019-04-23T19:58:51.689Z,43.94
2019-04-23T20:03:52.499Z,43.60
2019-04-23T20:06:44.203Z,43.70
2019-04-23T20:13:01.968Z,43.41
2019-04-23T20:15:15.894Z,43.40
2019-04-23T20:17:56.631Z,43.28
2019-04-23T20:20:33.763Z,43.24
2019-04-23T20:23:14.031Z,43.22
2019-04-23T20:33:18.881Z,43.02
2019-04-23T20:49:47.121Z,42.73
2019-04-23T20:52:32.021Z,42.77
2019-04-23T20:55:01.145Z,42.74
2019-04-23T20:57:55.527Z,42.67
2019-04-23T21:00:49.816Z,42.69
2019-04-23T21:03:39.085Z,42.71
2019-04-23T21:06:04.394Z,42.69
2019-04-23T21:08:53.769Z,42.80
2019-04-23T21:11:32.584Z,42.78
2019-04-23T21:16:33.765Z,42.94
2019-04-23T21:18:58.569Z,43.02
2019-04-23T21:22:06.098Z,43.07
2019-04-23T21:24:42.448Z,43.27
2019-04-23T21:27:29.855Z,43.20
2019-04-23T21:30:09.170Z,43.45
2019-04-23T21:32:45.303Z,43.49
2019-04-23T21:35:39.153Z,43.49
2019-04-23T21:43:57.555Z,43.87
2019-04-23T21:49:09.188Z,44.37
2019-04-23T21:51:45.843Z,44.41
2019-04-23T21:53:58.723Z,44.55
2019-04-23T21:56:44.800Z,44.77
2019-04-23T21:59:09.889Z,44.62
2019-04-23T22:01:54.729Z,45.02
2019-04-23T22:04:40.073Z,45.23
2019-04-23T22:07:11.973Z,45.27
2019-04-23T22:14:50.449Z,45.77
2019-04-23T22:17:33.226Z,45.87
2019-04-23T22:22:52.914Z,46.33
2019-04-23T22:25:22.239Z,46.41
2019-04-23T22:27:54.105Z,46.25
2019-04-23T22:30:30.473Z,46.47
2019-04-23T22:33:11.236Z,46.71
2019-04-23T22:35:52.159Z,46.63
2019-04-23T22:38:20.426Z,47.07
2019-04-23T22:40:56.341Z,47.16
2019-04-23T22:43:37.699Z,47.05
2019-04-23T22:46:08.791Z,47.38
2019-04-23T22:49:04.030Z,47.13
2019-04-23T22:51:30.962Z,47.21
2019-04-23T22:56:45.017Z,47.61
2019-04-23T22:59:26.784Z,47.40
2019-04-23T23:02:00.401Z,47.44
2019-04-23T23:04:31.155Z,47.35
2019-04-23T23:07:24.508Z,47.59
2019-04-23T23:09:43.944Z,47.40
2019-04-23T23:12:21.570Z,47.68
2019-04-23T23:15:06.905Z,47.67
2019-04-23T23:17:43.023Z,47.70
2019-04-23T23:22:58.859Z,47.22
2019-04-23T23:28:06.135Z,47.55
2019-04-23T23:30:38.867Z,47.82
2019-04-23T23:33:12.990Z,48.01
2019-04-23T23:35:44.469Z,47.87
2019-04-23T23:40:57.111Z,48.15
2019-04-23T23:43:29.706Z,48.06
2019-04-23T23:46:15.213Z,48.22
2019-04-23T23:48:34.999Z,48.27
2019-04-23T23:51:18.754Z,48.46
2019-04-23T23:53:58.540Z,48.34
2019-04-23T23:56:20.559Z,48.49
2019-04-23T23:59:04.968Z,48.48
